Delta Virtual Airport Information Service

Taiwan Taoyuan International Airport

ICAO: RCTP Country: Taiwan
Latitude: 25.0777 Longitude: 121.233
Latest Arrival : CAL5159511 (VVNB-RCTP) Latest Departure : CAL5159511 (RCTP-VVNB)


WX CaptureLIVE
Data provided by noaa.gov | Fetched at 23:02:57

METAR : RCTP 120300Z 24018KT 9999 FEW020 SCT200 33/23 Q1008 WS R23R NOSIG RMK A2978

TAF : RCTP 112300Z 1200/1306 24010KT 9999 FEW015 BKN032 TEMPO 1200/1202 21005KT TEMPO 1202/1208 25015KT BECMG 1210/1212 20005KT TEMPO 1218/1224 3000 BR SCT007 BKN011 BKN030 TEMPO 1300/1306 25010KT 5000 BR FEW012 BKN022 BKN050


Runway Data for RCTP
Data provided by openaviationdata.com

Runway ID Mag Var Hdg Length Elevation Surface ILS Freq ILS Id ILS Slope
5 -3 52° 12020 ft 107 ft Concrete 111.1 ITIA 3
6 -3 52° 11001 ft 107 ft Concrete 110.7 ICKS 3
23 -3 232° 12020 ft 107 ft Concrete 109.3 ITYA 3
24 -3 232° 11001 ft 107 ft Concrete 111.9 ICJN 3

Taiwan Taoyuan International Airport, Taiwan
Use only for reference purposes



Not for navigational purposes.